Time;durP1;ratioP1;P1;durP2;ratioP2;P2;SDS_P1;SDS_P2;PMS_P1;PMS_P2;Temp;Humidity;BMP_temperature;BMP_pressure;BME280_temperature;BME280_humidity;BME280_pressure;Samples;Min_cycle;Max_cycle;Signal;HPM_P1;HPM_P2
2022/10/03 00:02:26;;;;;;;;;;;;;;;9.76;87.24;102516.13;5038623;28;19932;-59
2022/10/03 00:05:07;;;;;;;;;;;;;;;9.76;87.24;102517.94;5040366;28;19916;-59
2022/10/03 00:07:41;;;;;;;;;;;;;;;9.75;87.43;102521.56;5044097;28;19929;-59
2022/10/03 00:10:15;;;;;;;;;;;;;;;9.73;87.44;102511.09;5041599;28;19917;-58
2022/10/03 00:12:41;;;;;;;;;;;;;;;9.73;88.04;102513.75;5044876;28;20418;-59
2022/10/03 00:15:12;;;;;;;;;;;;;;;9.73;87.95;102508.44;5040408;28;20027;-59
2022/10/03 00:17:48;;;;;;;;;;;;;;;9.74;87.77;102517.22;5042534;28;19924;-58
2022/10/03 00:20:31;;;;;;;;;;;;;;;9.73;88.03;102516.38;5044401;28;20453;-59
2022/10/03 00:23:03;;;;;;;;;;;;;;;9.74;87.76;102522.53;5037172;28;19924;-59
2022/10/03 00:25:34;;;;;;;;;;;;;;;9.76;87.75;102518.78;5042221;28;21303;-58
2022/10/03 00:28:20;;;;;;;;;;;;;;;9.76;87.03;102520.59;5041954;28;19920;-59
2022/10/03 00:30:51;;;;;;;;;;;;;;;9.75;86.94;102525.06;5042044;28;19925;-58
2022/10/03 00:33:22;;;;;;;;;;;;;;;9.76;86.70;102528.56;5044057;28;19991;-58
2022/10/03 00:35:53;;;;;;;;;;;;;;;9.76;86.54;102532.06;5045196;28;19921;-58
2022/10/03 00:38:37;;;;;;;;;;;;;;;9.74;87.04;102535.81;5045984;28;19928;-58
2022/10/03 00:41:26;;;;;;;;;;;;;;;9.76;86.86;102541.81;5043346;28;19917;-59
2022/10/03 00:44:15;;;;;;;;;;;;;;;9.73;86.42;102542.91;5039039;28;19916;-58
2022/10/03 00:46:59;;;;;;;;;;;;;;;9.69;85.86;102546.78;5042801;28;20015;-59
2022/10/03 00:49:43;;;;;;;;;;;;;;;9.65;86.27;102533.91;5045382;28;20510;-58
2022/10/03 00:52:21;;;;;;;;;;;;;;;9.63;86.18;102539.31;5032420;28;19920;-58
2022/10/03 00:55:05;;;;;;;;;;;;;;;9.61;86.70;102536.81;5037576;28;19928;-59
2022/10/03 00:57:49;;;;;;;;;;;;;;;9.60;86.60;102543.06;5043361;28;19924;-58
2022/10/03 01:00:14;;;;;;;;;;;;;;;9.59;86.89;102552.00;5044100;28;19924;-59
2022/10/03 01:02:45;;;;;;;;;;;;;;;9.59;86.75;102553.81;5041671;28;19920;-58
2022/10/03 01:05:25;;;;;;;;;;;;;;;9.58;86.48;102550.31;5044294;28;19917;-58
2022/10/03 01:08:16;;;;;;;;;;;;;;;9.57;86.37;102563.69;5042423;28;19921;-59
2022/10/03 01:10:42;;;;;;;;;;;;;;;9.52;86.17;102565.84;5043163;28;19971;-58
2022/10/03 01:13:16;;;;;;;;;;;;;;;9.44;86.03;102566.44;5046020;28;19917;-59
2022/10/03 01:15:58;;;;;;;;;;;;;;;9.38;86.73;102568.75;5047968;28;20388;-58
2022/10/03 01:18:49;;;;;;;;;;;;;;;9.35;87.24;102575.13;5044936;28;20016;-59
2022/10/03 01:21:14;;;;;;;;;;;;;;;9.31;87.42;102579.84;5045404;28;19959;-58
2022/10/03 01:23:42;;;;;;;;;;;;;;;9.27;87.23;102573.09;5047761;28;19945;-59
2022/10/03 01:26:27;;;;;;;;;;;;;;;9.27;87.37;102574.91;5044708;28;19921;-58
2022/10/03 01:31:56;;;;;;;;;;;;;;;9.22;87.83;102580.53;5049403;28;20042;-58
2022/10/03 01:34:33;;;;;;;;;;;;;;;9.19;87.88;102575.47;5046292;28;20015;-58
2022/10/03 01:37:17;;;;;;;;;;;;;;;9.20;87.93;102577.16;5048611;28;19944;-59
2022/10/03 01:39:52;;;;;;;;;;;;;;;9.21;87.58;102578.84;5046526;28;19924;-58
2022/10/03 01:42:35;;;;;;;;;;;;;;;9.18;87.94;102583.53;5040464;28;19987;-58
2022/10/03 01:45:03;;;;;;;;;;;;;;;9.15;87.86;102584.63;5046500;28;19920;-58
2022/10/03 01:47:37;;;;;;;;;;;;;;;9.11;87.99;102577.88;5044200;28;20596;-58
2022/10/03 01:50:16;;;;;;;;;;;;;;;9.07;88.30;102575.59;5047691;28;19916;-58
2022/10/03 01:53:03;;;;;;;;;;;;;;;9.04;88.20;102576.69;5045900;28;19917;-58
2022/10/03 01:55:48;;;;;;;;;;;;;;;9.03;88.72;102575.00;5042423;28;19924;-58
2022/10/03 01:58:22;;;;;;;;;;;;;;;8.98;88.66;102577.16;5048512;28;19917;-59
2022/10/03 02:01:09;;;;;;;;;;;;;;;8.92;88.63;102575.78;5045642;28;20269;-58
2022/10/03 02:03:37;;;;;;;;;;;;;;;8.88;88.80;102578.78;5046722;28;20301;-59
2022/10/03 02:06:21;;;;;;;;;;;;;;;8.84;88.88;102574.69;5047714;28;19928;-58
2022/10/03 02:08:53;;;;;;;;;;;;;;;8.80;89.11;102579.38;5046868;28;19986;-58
2022/10/03 02:11:37;;;;;;;;;;;;;;;8.78;88.98;102576.00;5044138;28;19920;-58
2022/10/03 02:14:12;;;;;;;;;;;;;;;8.78;89.06;102580.47;5047263;28;20011;-61
2022/10/03 02:16:44;;;;;;;;;;;;;;;8.77;89.15;102584.91;5048114;28;19971;-59
2022/10/03 02:19:09;;;;;;;;;;;;;;;8.75;89.53;102584.19;5045873;28;20319;-59
2022/10/03 02:21:44;;;;;;;;;;;;;;;8.75;89.40;102586.00;5047520;28;19921;-58
2022/10/03 02:24:16;;;;;;;;;;;;;;;8.77;89.68;102584.91;5043464;28;21655;-58
2022/10/03 02:26:50;;;;;;;;;;;;;;;8.78;89.67;102586.59;5045339;28;19931;-59
2022/10/03 02:29:26;;;;;;;;;;;;;;;8.79;90.00;102583.00;5048659;28;20673;-59
2022/10/03 02:31:57;;;;;;;;;;;;;;;8.79;89.88;102584.81;5047282;28;19917;-58
2022/10/03 02:34:32;;;;;;;;;;;;;;;8.79;90.12;102588.28;5047241;28;20083;-58
2022/10/03 02:37:16;;;;;;;;;;;;;;;8.77;90.10;102582.28;5037970;28;20651;-58
2022/10/03 02:39:57;;;;;;;;;;;;;;;8.76;90.00;102591.19;5043871;28;20281;-58
2022/10/03 02:42:33;;;;;;;;;;;;;;;8.76;89.76;102591.19;5042332;28;19925;-58
2022/10/03 02:45:13;;;;;;;;;;;;;;;8.77;89.83;102584.06;5046355;28;19917;-58
2022/10/03 02:48:08;;;;;;;;;;;;;;;8.78;89.98;102591.06;5045805;28;20015;-59
2022/10/03 02:50:34;;;;;;;;;;;;;;;8.79;90.46;102590.94;5041417;28;19917;-59
2022/10/03 02:53:17;;;;;;;;;;;;;;;8.78;90.32;102583.97;5047699;28;19921;-59
2022/10/03 02:55:56;;;;;;;;;;;;;;;8.78;90.31;102588.41;5051875;28;19940;-58
2022/10/03 02:58:37;;;;;;;;;;;;;;;8.79;89.96;102575.06;5049366;28;19917;-59
2022/10/03 03:01:14;;;;;;;;;;;;;;;8.81;90.14;102582.88;5048623;28;20528;-59
2022/10/03 03:03:58;;;;;;;;;;;;;;;8.80;89.81;102581.19;5040166;28;20046;-59
2022/10/03 03:06:23;;;;;;;;;;;;;;;8.78;89.81;102575.16;5045708;28;19953;-58
2022/10/03 03:08:57;;;;;;;;;;;;;;;8.76;90.16;102577.09;5045342;28;19975;-59
2022/10/03 03:11:28;;;;;;;;;;;;;;;8.76;89.92;102577.09;5044084;28;19959;-58
2022/10/03 03:14:05;;;;;;;;;;;;;;;8.75;90.21;102578.06;5040738;28;19917;-59
2022/10/03 03:16:49;;;;;;;;;;;;;;;8.72;90.36;102586.22;5047340;28;19917;-59
2022/10/03 03:19:15;;;;;;;;;;;;;;;8.72;90.15;102596.81;5047600;28;20034;-59
2022/10/03 03:21:41;;;;;;;;;;;;;;;8.71;90.00;102595.97;5050327;28;20007;-58
2022/10/03 03:24:18;;;;;;;;;;;;;;;8.71;90.24;102598.63;5047034;28;20004;-59
2022/10/03 03:27:01;;;;;;;;;;;;;;;8.72;90.00;102591.53;5049076;28;19986;-59
2022/10/03 03:29:29;;;;;;;;;;;;;;;8.74;90.05;102597.56;5042180;28;20004;-58
2022/10/03 03:32:20;;;;;;;;;;;;;;;8.73;89.95;102596.72;5044155;28;20010;-59
2022/10/03 03:35:05;;;;;;;;;;;;;;;8.72;89.57;102602.13;5042324;28;20013;-58
2022/10/03 03:37:30;;;;;;;;;;;;;;;8.71;89.43;102598.63;5049178;28;20384;-58
2022/10/03 03:40:01;;;;;;;;;;;;;;;8.72;89.20;102589.72;5047607;28;19947;-58
2022/10/03 03:42:26;;;;;;;;;;;;;;;8.72;88.93;102594.19;5039494;28;19917;-57
2022/10/03 03:44:53;;;;;;;;;;;;;;;8.71;88.79;102600.44;5045672;28;19917;-58
2022/10/03 03:47:37;;;;;;;;;;;;;;;8.69;88.87;102598.75;5042751;28;20008;-58
2022/10/03 03:50:02;;;;;;;;;;;;;;;8.64;88.38;102600.88;5043600;28;19921;-59
2022/10/03 03:52:40;;;;;;;;;;;;;;;8.59;88.56;102602.19;5045134;28;19916;-59
2022/10/03 03:55:24;;;;;;;;;;;;;;;8.53;88.13;102598.19;5042677;28;20011;-58
2022/10/03 03:57:52;;;;;;;;;;;;;;;8.52;88.33;102599.16;5049945;28;19913;-59
2022/10/03 04:00:20;;;;;;;;;;;;;;;8.51;88.44;102600.09;5044734;28;19924;-58
2022/10/03 04:02:48;;;;;;;;;;;;;;;8.50;88.37;102597.56;5038559;28;20027;-59
2022/10/03 04:05:41;;;;;;;;;;;;;;;8.48;88.38;102596.84;5044762;28;19975;-58
2022/10/03 04:08:24;;;;;;;;;;;;;;;8.47;88.44;102608.41;5042205;28;19921;-59
2022/10/03 04:10:57;;;;;;;;;;;;;;;8.41;88.69;102609.69;5043902;28;19917;-58
2022/10/03 04:13:28;;;;;;;;;;;;;;;8.36;88.59;102610.00;5039473;28;19925;-59
2022/10/03 04:16:03;;;;;;;;;;;;;;;8.30;88.93;102610.44;5041329;28;19923;-59
2022/10/03 04:18:59;;;;;;;;;;;;;;;8.23;88.67;102617.16;5043956;28;20011;-58
2022/10/03 04:21:34;;;;;;;;;;;;;;;8.18;89.22;102611.34;5040233;28;20373;-58
2022/10/03 04:23:59;;;;;;;;;;;;;;;8.10;88.83;102607.56;5042527;28;19917;-59
2022/10/03 04:26:37;;;;;;;;;;;;;;;8.00;88.71;102608.22;5044699;28;20007;-58
2022/10/03 04:29:20;;;;;;;;;;;;;;;7.97;89.12;102611.09;5042234;28;19928;-58
2022/10/03 04:31:45;;;;;;;;;;;;;;;8.00;89.52;102615.31;5036090;28;19925;-58
2022/10/03 04:34:34;;;;;;;;;;;;;;;8.01;89.77;102620.50;5037863;28;19927;-58
2022/10/03 04:37:18;;;;;;;;;;;;;;;8.04;89.79;102616.78;5035128;28;19916;-58
2022/10/03 04:39:54;;;;;;;;;;;;;;;8.06;90.17;102618.34;5034609;28;20004;-58
2022/10/03 04:42:27;;;;;;;;;;;;;;;8.10;90.60;102615.50;5040116;28;19921;-58
2022/10/03 04:45:10;;;;;;;;;;;;;;;8.11;91.00;102619.84;5038087;28;19916;-58
2022/10/03 04:47:47;;;;;;;;;;;;;;;8.09;90.84;102622.56;5045782;28;19927;-59
2022/10/03 04:50:22;;;;;;;;;;;;;;;8.12;91.05;102618.91;5043987;28;20446;-58
2022/10/03 04:52:55;;;;;;;;;;;;;;;8.13;91.01;102618.78;5040967;28;19924;-58
2022/10/03 04:55:34;;;;;;;;;;;;;;;8.16;91.25;102617.72;5044096;28;19948;-58
2022/10/03 04:57:59;;;;;;;;;;;;;;;8.16;90.69;102621.19;5032964;28;20274;-58
2022/10/03 05:00:30;;;;;;;;;;;;;;;8.18;90.84;102624.56;5043922;28;19940;-58
2022/10/03 05:03:13;;;;;;;;;;;;;;;8.21;91.10;102620.84;5041005;28;20519;-58
2022/10/03 05:05:43;;;;;;;;;;;;;;;8.22;91.10;102628.69;5045299;28;20292;-58
2022/10/03 05:08:20;;;;;;;;;;;;;;;8.23;90.64;102632.19;5041351;28;19967;-58
2022/10/03 05:10:45;;;;;;;;;;;;;;;8.23;91.00;102629.53;5036014;28;20347;-58
2022/10/03 05:13:21;;;;;;;;;;;;;;;8.21;90.89;102632.28;5039478;28;19921;-58
2022/10/03 05:15:54;;;;;;;;;;;;;;;8.21;90.95;102621.72;5042362;28;19923;-58
2022/10/03 05:18:29;;;;;;;;;;;;;;;8.23;90.64;102624.25;5045971;28;19924;-59
2022/10/03 05:20:55;;;;;;;;;;;;;;;8.22;90.22;102619.91;5044290;28;19948;-58
2022/10/03 05:23:40;;;;;;;;;;;;;;;8.19;90.58;102623.63;5044420;28;19960;-58
2022/10/03 05:26:14;;;;;;;;;;;;;;;8.20;90.40;102627.97;5043121;28;19921;-58
2022/10/03 05:28:39;;;;;;;;;;;;;;;8.19;90.02;102628.91;5041323;28;19917;-58
2022/10/03 05:31:23;;;;;;;;;;;;;;;8.18;89.93;102634.31;5037919;28;20549;-58
2022/10/03 05:33:54;;;;;;;;;;;;;;;8.18;90.17;102632.53;5041574;28;20423;-58
2022/10/03 05:36:23;;;;;;;;;;;;;;;8.13;90.46;102639.09;5043235;28;19959;-57
2022/10/03 05:39:06;;;;;;;;;;;;;;;8.07;90.14;102640.38;5041020;28;20060;-58
2022/10/03 05:41:35;;;;;;;;;;;;;;;8.10;89.96;102641.97;5039904;28;19952;-58
2022/10/03 05:44:12;;;;;;;;;;;;;;;8.10;90.30;102648.13;5045342;28;20431;-58
2022/10/03 05:46:55;;;;;;;;;;;;;;;8.04;90.23;102643.22;5045295;28;19928;-58
2022/10/03 05:49:40;;;;;;;;;;;;;;;8.02;89.90;102648.63;5045908;28;19967;-57
2022/10/03 05:52:25;;;;;;;;;;;;;;;8.01;89.83;102659.31;5036503;28;19935;-58
2022/10/03 05:55:22;;;;;;;;;;;;;;;7.99;89.69;102656.78;5035128;28;20150;-59
2022/10/03 05:57:47;;;;;;;;;;;;;;;7.98;89.86;102670.13;5005903;28;19925;-59
2022/10/03 06:00:26;;;;;;;;;;;;;;;7.98;90.09;102660.41;5041759;28;20299;-58
2022/10/03 06:02:52;;;;;;;;;;;;;;;8.00;89.90;102660.28;5044102;28;19924;-58
2022/10/03 06:05:21;;;;;;;;;;;;;;;8.02;89.61;102661.03;5045401;28;19917;-58
2022/10/03 06:08:04;;;;;;;;;;;;;;;8.04;89.62;102659.09;5049210;28;19932;-58
2022/10/03 06:10:32;;;;;;;;;;;;;;;8.07;89.64;102667.66;5050930;28;19924;-58
2022/10/03 06:13:01;;;;;;;;;;;;;;;8.12;89.64;102662.06;5043885;28;19917;-58
2022/10/03 06:15:53;;;;;;;;;;;;;;;8.18;89.69;102666.06;5043800;28;20441;-58
2022/10/03 06:18:50;;;;;;;;;;;;;;;8.21;89.47;102671.16;5042917;28;19994;-58
2022/10/03 06:21:36;;;;;;;;;;;;;;;8.18;89.56;102671.38;5019422;28;19942;-59
2022/10/03 06:24:03;;;;;;;;;;;;;;;8.16;89.26;102668.84;5041410;28;19923;-58
2022/10/03 06:26:41;;;;;;;;;;;;;;;8.17;89.61;102664.38;5043918;28;19960;-58
2022/10/03 06:29:25;;;;;;;;;;;;;;;8.13;89.29;102660.28;5042797;28;19917;-58
2022/10/03 06:31:50;;;;;;;;;;;;;;;8.20;89.79;102672.94;5044969;28;19921;-58
2022/10/03 06:34:34;;;;;;;;;;;;;;;8.22;89.72;102672.84;5041448;28;20134;-57
2022/10/03 06:37:18;;;;;;;;;;;;;;;8.21;89.66;102679.94;5044773;28;19913;-58
2022/10/03 06:40:11;;;;;;;;;;;;;;;8.20;89.85;102678.25;5049048;28;20257;-58
2022/10/03 06:42:55;;;;;;;;;;;;;;;8.18;89.75;102681.94;5038610;28;20391;-58
2022/10/03 06:45:48;;;;;;;;;;;;;;;8.15;89.76;102682.19;5047882;28;19928;-58
2022/10/03 06:48:33;;;;;;;;;;;;;;;8.15;90.23;102674.25;5040544;28;20398;-58
2022/10/03 06:51:15;;;;;;;;;;;;;;;8.20;90.47;102675.59;5048858;28;19913;-58
2022/10/03 06:53:53;;;;;;;;;;;;;;;8.27;90.96;102681.28;5050455;28;20015;-58
2022/10/03 06:56:39;;;;;;;;;;;;;;;8.35;91.69;102679.81;5046946;28;19925;-58
2022/10/03 06:59:22;;;;;;;;;;;;;;;8.42;91.98;102677.56;5043163;28;19924;-58
2022/10/03 07:01:58;;;;;;;;;;;;;;;8.49;92.03;102680.63;5049668;28;20027;-58
2022/10/03 07:04:44;;;;;;;;;;;;;;;8.55;92.31;102685.47;5050167;28;20299;-58
2022/10/03 07:07:21;;;;;;;;;;;;;;;8.62;92.21;102686.69;5047156;28;19986;-58
2022/10/03 07:10:05;;;;;;;;;;;;;;;8.71;92.53;102693.97;5041347;28;19955;-58
2022/10/03 07:12:46;;;;;;;;;;;;;;;8.79;92.70;102699.56;5043291;28;19921;-58
2022/10/03 07:15:21;;;;;;;;;;;;;;;8.88;93.30;102687.41;5049170;28;19924;-58
2022/10/03 07:17:52;;;;;;;;;;;;;;;8.95;93.22;102694.78;5049867;28;20004;-58
2022/10/03 07:20:40;;;;;;;;;;;;;;;9.04;93.73;102689.78;5046881;28;19975;-58
2022/10/03 07:23:17;;;;;;;;;;;;;;;9.13;93.87;102697.03;5038093;28;19921;-58
2022/10/03 07:25:42;;;;;;;;;;;;;;;9.23;93.79;102698.03;5038575;28;20027;-58
2022/10/03 07:28:17;;;;;;;;;;;;;;;9.29;93.73;102694.94;5049909;28;20350;-59
2022/10/03 07:30:55;;;;;;;;;;;;;;;9.33;94.04;102696.38;5050099;28;20343;-58
2022/10/03 07:33:20;;;;;;;;;;;;;;;9.38;93.95;102702.16;5053648;28;20332;-59
2022/10/03 07:38:57;;;;;;;;;;;;;;;9.52;94.72;102707.25;5049250;28;19958;-58
2022/10/03 07:41:38;;;;;;;;;;;;;;;9.57;94.68;102710.41;5043649;28;19999;-59
2022/10/03 07:44:11;;;;;;;;;;;;;;;9.65;95.07;102706.31;5047805;28;19913;-58
2022/10/03 07:46:53;;;;;;;;;;;;;;;9.73;95.06;102717.16;5044592;28;19921;-59
2022/10/03 07:49:26;;;;;;;;;;;;;;;9.82;95.33;102721.75;5035732;28;19951;-59
2022/10/03 07:52:16;;;;;;;;;;;;;;;9.92;95.63;102722.75;5040143;28;19913;-58
2022/10/03 07:54:41;;;;;;;;;;;;;;;10.03;95.64;102724.53;5047693;28;19917;-59
2022/10/03 07:57:13;;;;;;;;;;;;;;;10.12;95.56;102719.38;5042851;28;19917;-58
2022/10/03 07:59:56;;;;;;;;;;;;;;;10.24;95.95;102728.19;5048095;28;20465;-58
2022/10/03 08:02:21;;;;;;;;;;;;;;;10.38;96.30;102737.69;5041543;28;19916;-58
2022/10/03 08:05:13;;;;;;;;;;;;;;;10.49;96.36;102729.75;5044858;28;19920;-58
2022/10/03 08:08:04;;;;;;;;;;;;;;;10.64;96.28;102735.59;5041508;28;19921;-59
2022/10/03 08:10:41;;;;;;;;;;;;;;;10.78;96.84;102738.00;5042655;28;19964;-58
2022/10/03 08:13:21;;;;;;;;;;;;;;;10.90;96.80;102733.47;5043251;28;19916;-57
2022/10/03 08:15:55;;;;;;;;;;;;;;;11.02;97.05;102729.84;5046475;28;20396;-59
2022/10/03 08:18:40;;;;;;;;;;;;;;;11.12;97.01;102733.41;5040582;28;19928;-59
2022/10/03 08:21:20;;;;;;;;;;;;;;;11.24;96.88;102726.19;5040266;28;19921;-58
2022/10/03 08:24:01;;;;;;;;;;;;;;;11.31;96.63;102725.59;5047185;28;20392;-58
2022/10/03 08:27:05;;;;;;;;;;;;;;;11.40;96.50;102726.63;5045692;28;19917;-58
2022/10/03 08:29:37;;;;;;;;;;;;;;;11.54;96.35;102726.28;4982607;28;19925;-57
2022/10/03 08:32:16;;;;;;;;;;;;;;;11.65;96.66;102722.72;4980910;28;20602;-58
2022/10/03 08:34:54;;;;;;;;;;;;;;;11.75;96.54;102728.94;5018847;28;19927;-58
2022/10/03 08:37:25;;;;;;;;;;;;;;;11.88;96.40;102729.59;5040086;28;19933;-58
2022/10/03 08:40:22;;;;;;;;;;;;;;;12.02;96.64;102729.22;5045517;28;20388;-58
2022/10/03 08:42:53;;;;;;;;;;;;;;;12.18;96.47;102734.06;5027073;28;19999;-58
2022/10/03 08:45:33;;;;;;;;;;;;;;;12.33;96.48;102734.53;5049742;28;19971;-59
2022/10/03 08:48:17;;;;;;;;;;;;;;;12.42;96.01;102733.69;5044573;28;19920;-58
2022/10/03 08:50:42;;;;;;;;;;;;;;;12.51;95.97;102732.91;5044172;28;19916;-59
2022/10/03 08:53:37;;;;;;;;;;;;;;;12.62;95.78;102729.28;5040689;28;20404;-58
2022/10/03 08:56:05;;;;;;;;;;;;;;;12.76;95.30;102736.88;5036472;28;20008;-59
2022/10/03 08:58:33;;;;;;;;;;;;;;;12.87;94.88;102741.22;5042267;28;19927;-58
2022/10/03 09:01:14;;;;;;;;;;;;;;;12.97;94.83;102731.41;5043035;28;19921;-59
2022/10/03 09:03:58;;;;;;;;;;;;;;;13.13;94.42;102734.38;5043094;28;19970;-59
2022/10/03 09:06:27;;;;;;;;;;;;;;;13.33;94.32;102737.91;5039127;28;19921;-58
2022/10/03 09:09:01;;;;;;;;;;;;;;;13.47;92.79;102741.94;5047467;28;19913;-59
2022/10/03 09:11:29;;;;;;;;;;;;;;;13.57;91.82;102740.94;5039293;28;20008;-59
2022/10/03 09:14:03;;;;;;;;;;;;;;;13.71;91.72;102742.31;5040852;28;20965;-59
2022/10/03 09:16:47;;;;;;;;;;;;;;;13.86;91.08;102743.53;5045849;28;19920;-59
2022/10/03 09:19:34;;;;;;;;;;;;;;;13.99;90.23;102737.88;5042212;28;21750;-59
2022/10/03 09:21:59;;;;;;;;;;;;;;;14.07;88.63;102739.81;5039781;28;19929;-59
2022/10/03 09:24:32;;;;;;;;;;;;;;;14.16;88.54;102736.25;5042032;28;19932;-58
2022/10/03 09:27:03;;;;;;;;;;;;;;;14.27;87.47;102730.72;5041864;28;19921;-59
2022/10/03 09:29:46;;;;;;;;;;;;;;;14.38;87.37;102727.00;5042893;28;19928;-58
2022/10/03 09:32:24;;;;;;;;;;;;;;;14.51;87.12;102730.22;5048107;28;20368;-59
2022/10/03 09:35:21;;;;;;;;;;;;;;;14.60;86.42;102726.63;5045240;28;19913;-59
2022/10/03 09:38:06;;;;;;;;;;;;;;;14.66;86.29;102731.34;5048427;28;19920;-59
2022/10/03 09:40:49;;;;;;;;;;;;;;;14.74;85.15;102728.75;5041778;28;20359;-59
2022/10/03 09:43:33;;;;;;;;;;;;;;;14.82;84.58;102720.84;5049068;28;20371;-58
2022/10/03 09:46:07;;;;;;;;;;;;;;;14.89;84.30;102721.06;5050930;28;19931;-59
2022/10/03 09:48:38;;;;;;;;;;;;;;;14.90;83.50;102720.06;5052034;28;19997;-59
2022/10/03 09:51:09;;;;;;;;;;;;;;;14.91;82.61;102719.06;5046355;28;20029;-59
2022/10/03 09:53:56;;;;;;;;;;;;;;;14.97;82.25;102728.31;5047643;28;19998;-59
2022/10/03 09:56:25;;;;;;;;;;;;;;;14.98;80.95;102722.81;5039707;28;20597;-59
2022/10/03 09:59:01;;;;;;;;;;;;;;;14.96;79.04;102724.81;5040346;28;19963;-59
2022/10/03 10:01:35;;;;;;;;;;;;;;;14.97;78.10;102722.97;5040788;28;19982;-59
2022/10/03 10:04:06;;;;;;;;;;;;;;;15.01;78.25;102719.00;5045846;28;19920;-59
2022/10/03 10:06:34;;;;;;;;;;;;;;;15.06;78.79;102714.88;5044654;28;19928;-59
2022/10/03 10:09:17;;;;;;;;;;;;;;;15.11;79.07;102715.25;5043340;28;20039;-59
2022/10/03 10:12:01;;;;;;;;;;;;;;;15.12;78.89;102714.25;5042258;28;19962;-59
2022/10/03 10:14:41;;;;;;;;;;;;;;;15.13;79.25;102713.25;5044650;28;19927;-59
2022/10/03 10:17:10;;;;;;;;;;;;;;;15.18;79.19;102718.16;5046532;28;19921;-59
2022/10/03 10:19:44;;;;;;;;;;;;;;;15.21;79.48;102709.81;5044039;28;19923;-59
2022/10/03 10:22:40;;;;;;;;;;;;;;;15.18;78.96;102710.97;5039360;28;19927;-59
2022/10/03 10:25:08;;;;;;;;;;;;;;;15.27;78.08;102711.84;5040952;28;19920;-58
2022/10/03 10:27:47;;;;;;;;;;;;;;;15.28;78.08;102710.84;5046110;28;19940;-58
2022/10/03 10:30:18;;;;;;;;;;;;;;;15.29;77.67;102709.84;5040247;28;19917;-59
2022/10/03 10:33:01;;;;;;;;;;;;;;;15.32;77.49;102712.22;5042619;28;19924;-59
2022/10/03 10:35:43;;;;;;;;;;;;;;;15.43;77.98;102708.47;5041328;28;19960;-59
2022/10/03 10:38:24;;;;;;;;;;;;;;;15.54;77.81;102710.03;5043371;28;19929;-59
2022/10/03 10:41:02;;;;;;;;;;;;;;;15.57;76.61;102710.56;5047066;28;19913;-59
2022/10/03 10:43:47;;;;;;;;;;;;;;;15.63;76.70;102703.78;5047022;28;19921;-58
2022/10/03 10:46:12;;;;;;;;;;;;;;;15.73;76.54;102713.38;5045977;28;19966;-59
2022/10/03 10:48:56;;;;;;;;;;;;;;;15.79;74.57;102712.75;5046541;28;19916;-58
2022/10/03 10:51:24;;;;;;;;;;;;;;;15.86;73.59;102710.25;5041504;28;19917;-59
2022/10/03 10:54:08;;;;;;;;;;;;;;;15.98;74.12;102703.63;5041266;28;19925;-59
2022/10/03 10:56:52;;;;;;;;;;;;;;;16.08;73.87;102714.22;5038548;28;19960;-60
2022/10/03 10:59:32;;;;;;;;;;;;;;;16.04;73.47;102700.31;5042978;28;19928;-59
2022/10/03 11:02:16;;;;;;;;;;;;;;;16.08;73.68;102707.00;5040417;28;19978;-58
2022/10/03 11:04:41;;;;;;;;;;;;;;;16.16;72.85;102713.41;5037884;28;19993;-58
2022/10/03 11:07:25;;;;;;;;;;;;;;;16.23;73.33;102709.94;5041639;28;20384;-59
2022/10/03 11:09:59;;;;;;;;;;;;;;;16.31;73.00;102706.44;5037441;28;20412;-59
2022/10/03 11:12:43;;;;;;;;;;;;;;;16.38;72.20;102705.63;5044497;28;19929;-59
2022/10/03 11:15:27;;;;;;;;;;;;;;;16.45;71.80;102703.13;5038949;28;19921;-59
2022/10/03 11:18:11;;;;;;;;;;;;;;;16.56;71.64;102692.09;5040216;28;19923;-59
2022/10/03 11:20:56;;;;;;;;;;;;;;;16.65;70.70;102690.25;5046343;28;20013;-59
2022/10/03 11:23:50;;;;;;;;;;;;;;;16.64;70.39;102686.72;5044305;28;19921;-59
2022/10/03 11:26:34;;;;;;;;;;;;;;;16.67;70.64;102688.28;5045357;28;19924;-59
2022/10/03 11:29:29;;;;;;;;;;;;;;;16.71;69.89;102681.56;5041128;28;19917;-59
2022/10/03 11:32:26;;;;;;;;;;;;;;;16.90;69.38;102691.16;5044650;28;19923;-59
2022/10/03 11:35:09;;;;;;;;;;;;;;;17.04;67.69;102693.16;4999023;28;19917;-59
2022/10/03 11:37:45;;;;;;;;;;;;;;;17.12;66.57;102689.66;5048235;28;19920;-59
2022/10/03 11:40:23;;;;;;;;;;;;;;;17.14;66.19;102690.31;5044249;28;19920;-59
2022/10/03 11:42:49;;;;;;;;;;;;;;;17.09;66.65;102690.00;5048480;28;19923;-59
2022/10/03 11:45:44;;;;;;;;;;;;;;;17.05;66.68;102686.78;5045836;28;19924;-59
2022/10/03 11:48:25;;;;;;;;;;;;;;;17.03;67.07;102684.28;5030058;28;19925;-59
2022/10/03 11:50:52;;;;;;;;;;;;;;;17.05;66.86;102686.78;5043816;28;20332;-59
2022/10/03 11:53:36;;;;;;;;;;;;;;;16.98;65.69;102692.00;5042709;28;19924;-59
2022/10/03 11:56:11;;;;;;;;;;;;;;;16.95;66.03;102689.66;5043624;28;19924;-59
2022/10/03 11:58:53;;;;;;;;;;;;;;;16.88;66.31;102691.31;5041592;28;19923;-59
2022/10/03 12:01:32;;;;;;;;;;;;;;;16.84;66.63;102690.00;5035117;28;20016;-59
2022/10/03 12:04:19;;;;;;;;;;;;;;;16.83;66.05;102691.00;5041103;28;19917;-59
2022/10/03 12:09:31;;;;;;;;;;;;;;;16.88;66.60;102694.00;5036845;28;20488;-59
2022/10/03 12:12:15;;;;;;;;;;;;;;;16.96;66.67;102696.69;5044625;28;19916;-59
2022/10/03 12:14:45;;;;;;;;;;;;;;;17.06;66.19;102690.31;5037712;28;20000;-59
2022/10/03 12:17:16;;;;;;;;;;;;;;;17.11;66.36;102690.66;5045514;28;20510;-59
2022/10/03 12:20:02;;;;;;;;;;;;;;;17.21;66.62;102677.91;5048425;28;19943;-59
2022/10/03 12:22:40;;;;;;;;;;;;;;;17.34;66.55;102684.41;5046311;28;19917;-58
2022/10/03 12:25:20;;;;;;;;;;;;;;;17.46;66.53;102676.84;5043733;28;20392;-59
2022/10/03 12:27:57;;;;;;;;;;;;;;;17.55;66.96;102675.81;5041881;28;19952;-59
2022/10/03 12:30:23;;;;;;;;;;;;;;;17.69;67.41;102670.78;5041975;28;19928;-59
2022/10/03 12:32:58;;;;;;;;;;;;;;;17.86;65.28;102669.72;5042167;28;19943;-59
2022/10/03 12:35:23;;;;;;;;;;;;;;;17.90;64.05;102663.81;5046636;28;19920;-58
2022/10/03 12:38:01;;;;;;;;;;;;;;;17.99;63.89;102658.41;5048118;28;20007;-58
2022/10/03 12:40:30;;;;;;;;;;;;;;;17.98;63.06;102657.56;5046109;28;19913;-59
2022/10/03 12:43:02;;;;;;;;;;;;;;;17.91;62.08;102656.56;5042710;28;19927;-59
2022/10/03 12:45:36;;;;;;;;;;;;;;;17.83;61.72;102662.84;5043737;28;19917;-59
2022/10/03 12:48:12;;;;;;;;;;;;;;;17.84;61.86;102663.66;5044679;28;19978;-59
2022/10/03 12:50:55;;;;;;;;;;;;;;;17.88;61.59;102657.78;5042587;28;20008;-59
2022/10/03 12:53:40;;;;;;;;;;;;;;;17.92;62.30;102659.09;5044243;28;19917;-59
2022/10/03 12:56:26;;;;;;;;;;;;;;;17.95;61.85;102663.31;5010764;28;19916;-59
2022/10/03 12:59:06;;;;;;;;;;;;;;;17.97;61.64;102658.59;5023399;28;19969;-59
2022/10/03 13:01:34;;;;;;;;;;;;;;;18.03;61.72;102660.56;5041607;28;20703;-59
2022/10/03 13:04:02;;;;;;;;;;;;;;;18.07;60.54;102653.84;5043008;28;19927;-59
2022/10/03 13:06:30;;;;;;;;;;;;;;;18.20;61.61;102647.88;5042926;28;19924;-59
2022/10/03 13:09:05;;;;;;;;;;;;;;;18.38;59.84;102650.28;5042211;28;19928;-59
2022/10/03 13:11:47;;;;;;;;;;;;;;;18.46;60.06;102650.22;5047863;28;20315;-58
2022/10/03 13:14:31;;;;;;;;;;;;;;;18.55;59.82;102654.56;5044327;28;20004;-59
2022/10/03 13:17:16;;;;;;;;;;;;;;;18.38;59.56;102643.06;5045158;28;21961;-59
2022/10/03 13:19:50;;;;;;;;;;;;;;;18.31;59.15;102646.66;5043524;28;19920;-59
2022/10/03 13:22:29;;;;;;;;;;;;;;;18.27;59.36;102647.00;5046714;28;20029;-59
2022/10/03 13:25:06;;;;;;;;;;;;;;;18.25;59.93;102645.50;5045870;28;19917;-59
2022/10/03 13:27:42;;;;;;;;;;;;;;;18.22;59.69;102638.63;5047545;28;19925;-59
2022/10/03 13:30:27;;;;;;;;;;;;;;;18.17;58.81;102634.78;5047938;28;19917;-59
2022/10/03 13:32:58;;;;;;;;;;;;;;;18.15;59.01;102626.88;5047474;28;19917;-59
2022/10/03 13:38:12;;;;;;;;;;;;;;;18.15;59.95;102629.56;5046300;28;19924;-59
2022/10/03 13:40:42;;;;;;;;;;;;;;;18.18;60.56;102628.38;5051511;28;19916;-59
2022/10/03 13:43:10;;;;;;;;;;;;;;;18.18;60.42;102631.91;5046344;28;20312;-59
2022/10/03 13:45:39;;;;;;;;;;;;;;;18.16;60.09;102631.25;5045018;28;20380;-59
2022/10/03 13:48:11;;;;;;;;;;;;;;;18.03;59.67;102628.31;5042190;28;19925;-59